sensor_id;sensor_type;location;lat;lon;timestamp;P1;durP1;ratioP1;P2;durP2;ratioP2
52878;SDS011;38747;53.140;6.498;2023-08-06T00:02:22;8.57;;;5.43;;
52878;SDS011;38747;53.140;6.498;2023-08-06T00:04:48;10.32;;;5.47;;
52878;SDS011;38747;53.140;6.498;2023-08-06T00:07:14;10.70;;;5.80;;
52878;SDS011;38747;53.140;6.498;2023-08-06T00:09:39;10.25;;;6.20;;
52878;SDS011;38747;53.140;6.498;2023-08-06T00:12:05;12.80;;;6.57;;
52878;SDS011;38747;53.140;6.498;2023-08-06T00:14:31;13.07;;;7.03;;
52878;SDS011;38747;53.140;6.498;2023-08-06T00:16:56;12.10;;;6.43;;
52878;SDS011;38747;53.140;6.498;2023-08-06T00:19:22;11.77;;;6.60;;
52878;SDS011;38747;53.140;6.498;2023-08-06T00:21:48;12.77;;;6.40;;
52878;SDS011;38747;53.140;6.498;2023-08-06T00:24:13;12.57;;;6.23;;
52878;SDS011;38747;53.140;6.498;2023-08-06T00:26:39;10.73;;;6.10;;
52878;SDS011;38747;53.140;6.498;2023-08-06T00:29:06;10.50;;;6.03;;
52878;SDS011;38747;53.140;6.498;2023-08-06T00:31:31;10.97;;;5.30;;
52878;SDS011;38747;53.140;6.498;2023-08-06T00:33:57;10.82;;;5.60;;
52878;SDS011;38747;53.140;6.498;2023-08-06T00:36:22;9.87;;;5.23;;
52878;SDS011;38747;53.140;6.498;2023-08-06T00:38:48;10.80;;;4.82;;
52878;SDS011;38747;53.140;6.498;2023-08-06T00:41:14;10.93;;;5.23;;
52878;SDS011;38747;53.140;6.498;2023-08-06T00:43:39;9.17;;;4.77;;
52878;SDS011;38747;53.140;6.498;2023-08-06T00:46:05;9.48;;;4.57;;
52878;SDS011;38747;53.140;6.498;2023-08-06T00:48:31;9.83;;;4.50;;
52878;SDS011;38747;53.140;6.498;2023-08-06T00:50:56;9.75;;;4.70;;
52878;SDS011;38747;53.140;6.498;2023-08-06T00:53:22;9.00;;;4.75;;
52878;SDS011;38747;53.140;6.498;2023-08-06T00:55:49;7.72;;;4.72;;
52878;SDS011;38747;53.140;6.498;2023-08-06T00:58:16;8.67;;;5.00;;
52878;SDS011;38747;53.140;6.498;2023-08-06T01:00:42;9.20;;;4.70;;
52878;SDS011;38747;53.140;6.498;2023-08-06T01:03:07;9.32;;;4.85;;
52878;SDS011;38747;53.140;6.498;2023-08-06T01:05:33;8.33;;;4.60;;
52878;SDS011;38747;53.140;6.498;2023-08-06T01:08:08;8.73;;;4.75;;
52878;SDS011;38747;53.140;6.498;2023-08-06T01:14:02;8.02;;;4.38;;
52878;SDS011;38747;53.140;6.498;2023-08-06T01:16:35;9.07;;;4.80;;
52878;SDS011;38747;53.140;6.498;2023-08-06T01:19:02;9.55;;;4.90;;
52878;SDS011;38747;53.140;6.498;2023-08-06T01:21:28;9.50;;;4.93;;
52878;SDS011;38747;53.140;6.498;2023-08-06T01:23:53;9.03;;;4.60;;
52878;SDS011;38747;53.140;6.498;2023-08-06T01:29:08;10.73;;;4.33;;
52878;SDS011;38747;53.140;6.498;2023-08-06T01:31:41;10.00;;;4.55;;
52878;SDS011;38747;53.140;6.498;2023-08-06T01:34:19;10.23;;;5.80;;
52878;SDS011;38747;53.140;6.498;2023-08-06T01:36:47;9.90;;;5.38;;
52878;SDS011;38747;53.140;6.498;2023-08-06T01:39:13;10.75;;;6.00;;
52878;SDS011;38747;53.140;6.498;2023-08-06T01:41:39;9.73;;;5.37;;
52878;SDS011;38747;53.140;6.498;2023-08-06T01:44:04;10.15;;;5.88;;
52878;SDS011;38747;53.140;6.498;2023-08-06T01:46:30;10.23;;;5.67;;
52878;SDS011;38747;53.140;6.498;2023-08-06T01:48:55;10.23;;;5.25;;
52878;SDS011;38747;53.140;6.498;2023-08-06T01:51:21;10.77;;;6.00;;
52878;SDS011;38747;53.140;6.498;2023-08-06T01:53:47;11.48;;;6.07;;
52878;SDS011;38747;53.140;6.498;2023-08-06T01:56:12;10.53;;;6.17;;
52878;SDS011;38747;53.140;6.498;2023-08-06T01:58:38;10.93;;;6.03;;
52878;SDS011;38747;53.140;6.498;2023-08-06T02:01:04;13.37;;;6.60;;
52878;SDS011;38747;53.140;6.498;2023-08-06T02:03:29;12.00;;;6.13;;
52878;SDS011;38747;53.140;6.498;2023-08-06T02:05:55;10.40;;;6.30;;
52878;SDS011;38747;53.140;6.498;2023-08-06T02:08:21;12.60;;;6.10;;
52878;SDS011;38747;53.140;6.498;2023-08-06T02:10:46;11.30;;;6.85;;
52878;SDS011;38747;53.140;6.498;2023-08-06T02:13:12;10.63;;;6.07;;
52878;SDS011;38747;53.140;6.498;2023-08-06T02:15:44;11.88;;;6.85;;
52878;SDS011;38747;53.140;6.498;2023-08-06T02:18:12;12.40;;;7.28;;
52878;SDS011;38747;53.140;6.498;2023-08-06T02:20:39;11.70;;;6.90;;
52878;SDS011;38747;53.140;6.498;2023-08-06T02:23:05;11.50;;;6.70;;
52878;SDS011;38747;53.140;6.498;2023-08-06T02:25:31;12.63;;;6.93;;
52878;SDS011;38747;53.140;6.498;2023-08-06T02:27:57;10.87;;;6.73;;
52878;SDS011;38747;53.140;6.498;2023-08-06T02:30:22;10.98;;;7.18;;
52878;SDS011;38747;53.140;6.498;2023-08-06T02:32:48;12.50;;;6.77;;
52878;SDS011;38747;53.140;6.498;2023-08-06T02:35:14;15.82;;;7.40;;
52878;SDS011;38747;53.140;6.498;2023-08-06T02:37:40;13.17;;;6.90;;
52878;SDS011;38747;53.140;6.498;2023-08-06T02:40:05;12.37;;;6.80;;
52878;SDS011;38747;53.140;6.498;2023-08-06T02:42:32;13.23;;;7.35;;
52878;SDS011;38747;53.140;6.498;2023-08-06T02:44:57;11.53;;;6.53;;
52878;SDS011;38747;53.140;6.498;2023-08-06T02:47:23;13.45;;;6.72;;
52878;SDS011;38747;53.140;6.498;2023-08-06T02:49:49;12.23;;;6.60;;
52878;SDS011;38747;53.140;6.498;2023-08-06T02:52:14;12.25;;;6.85;;
52878;SDS011;38747;53.140;6.498;2023-08-06T02:54:40;10.83;;;6.63;;
52878;SDS011;38747;53.140;6.498;2023-08-06T02:57:05;13.97;;;6.60;;
52878;SDS011;38747;53.140;6.498;2023-08-06T02:59:31;11.20;;;6.45;;
52878;SDS011;38747;53.140;6.498;2023-08-06T03:01:57;11.43;;;6.60;;
52878;SDS011;38747;53.140;6.498;2023-08-06T03:04:23;11.37;;;6.47;;
52878;SDS011;38747;53.140;6.498;2023-08-06T03:06:49;12.02;;;6.75;;
52878;SDS011;38747;53.140;6.498;2023-08-06T03:09:15;12.30;;;6.35;;
52878;SDS011;38747;53.140;6.498;2023-08-06T03:11:42;10.40;;;6.03;;
52878;SDS011;38747;53.140;6.498;2023-08-06T03:14:07;11.20;;;6.53;;
52878;SDS011;38747;53.140;6.498;2023-08-06T03:16:33;10.23;;;5.80;;
52878;SDS011;38747;53.140;6.498;2023-08-06T03:18:58;10.70;;;6.60;;
52878;SDS011;38747;53.140;6.498;2023-08-06T03:21:24;11.63;;;6.47;;
52878;SDS011;38747;53.140;6.498;2023-08-06T03:23:50;10.88;;;6.63;;
52878;SDS011;38747;53.140;6.498;2023-08-06T03:26:15;11.87;;;6.50;;
52878;SDS011;38747;53.140;6.498;2023-08-06T03:28:41;12.48;;;6.40;;
52878;SDS011;38747;53.140;6.498;2023-08-06T03:31:07;10.87;;;6.53;;
52878;SDS011;38747;53.140;6.498;2023-08-06T03:33:32;9.70;;;5.80;;
52878;SDS011;38747;53.140;6.498;2023-08-06T03:35:58;11.57;;;6.00;;
52878;SDS011;38747;53.140;6.498;2023-08-06T03:38:24;15.20;;;6.38;;
52878;SDS011;38747;53.140;6.498;2023-08-06T03:40:49;11.60;;;6.27;;
52878;SDS011;38747;53.140;6.498;2023-08-06T03:43:15;12.35;;;6.22;;
52878;SDS011;38747;53.140;6.498;2023-08-06T03:45:41;11.13;;;6.47;;
52878;SDS011;38747;53.140;6.498;2023-08-06T03:48:07;10.65;;;6.10;;
52878;SDS011;38747;53.140;6.498;2023-08-06T03:50:33;9.98;;;6.03;;
52878;SDS011;38747;53.140;6.498;2023-08-06T03:52:59;10.97;;;6.00;;
52878;SDS011;38747;53.140;6.498;2023-08-06T03:55:24;10.15;;;6.18;;
52878;SDS011;38747;53.140;6.498;2023-08-06T03:57:50;12.50;;;6.43;;
52878;SDS011;38747;53.140;6.498;2023-08-06T04:00:16;10.48;;;6.20;;
52878;SDS011;38747;53.140;6.498;2023-08-06T04:02:41;11.03;;;6.10;;
52878;SDS011;38747;53.140;6.498;2023-08-06T04:05:07;11.07;;;6.13;;
52878;SDS011;38747;53.140;6.498;2023-08-06T04:07:33;12.13;;;6.50;;
52878;SDS011;38747;53.140;6.498;2023-08-06T04:09:59;10.52;;;5.97;;
52878;SDS011;38747;53.140;6.498;2023-08-06T04:12:26;11.85;;;6.22;;
52878;SDS011;38747;53.140;6.498;2023-08-06T04:14:53;11.13;;;6.70;;
52878;SDS011;38747;53.140;6.498;2023-08-06T04:17:19;10.35;;;6.60;;
52878;SDS011;38747;53.140;6.498;2023-08-06T04:19:49;12.18;;;6.82;;
52878;SDS011;38747;53.140;6.498;2023-08-06T04:22:16;9.75;;;5.78;;
52878;SDS011;38747;53.140;6.498;2023-08-06T04:24:42;13.07;;;6.78;;
52878;SDS011;38747;53.140;6.498;2023-08-06T04:27:08;12.43;;;6.53;;
52878;SDS011;38747;53.140;6.498;2023-08-06T04:29:35;13.48;;;6.63;;
52878;SDS011;38747;53.140;6.498;2023-08-06T04:32:03;10.25;;;6.13;;
52878;SDS011;38747;53.140;6.498;2023-08-06T04:34:30;12.15;;;6.30;;
52878;SDS011;38747;53.140;6.498;2023-08-06T04:36:56;11.00;;;6.40;;
52878;SDS011;38747;53.140;6.498;2023-08-06T04:39:21;12.77;;;6.40;;
52878;SDS011;38747;53.140;6.498;2023-08-06T04:41:47;11.98;;;5.82;;
52878;SDS011;38747;53.140;6.498;2023-08-06T04:44:12;11.33;;;6.80;;
52878;SDS011;38747;53.140;6.498;2023-08-06T04:46:38;10.10;;;5.78;;
52878;SDS011;38747;53.140;6.498;2023-08-06T04:49:04;10.13;;;6.13;;
52878;SDS011;38747;53.140;6.498;2023-08-06T04:51:29;10.25;;;6.20;;
52878;SDS011;38747;53.140;6.498;2023-08-06T04:53:56;12.27;;;6.00;;
52878;SDS011;38747;53.140;6.498;2023-08-06T04:56:22;10.48;;;5.90;;
52878;SDS011;38747;53.140;6.498;2023-08-06T04:58:48;10.38;;;6.20;;
52878;SDS011;38747;53.140;6.498;2023-08-06T05:01:14;9.67;;;5.60;;
52878;SDS011;38747;53.140;6.498;2023-08-06T05:03:39;9.57;;;5.83;;
52878;SDS011;38747;53.140;6.498;2023-08-06T05:06:05;10.63;;;6.20;;
52878;SDS011;38747;53.140;6.498;2023-08-06T05:08:30;10.30;;;6.07;;
52878;SDS011;38747;53.140;6.498;2023-08-06T05:10:56;10.00;;;5.50;;
52878;SDS011;38747;53.140;6.498;2023-08-06T05:13:22;10.07;;;5.70;;
52878;SDS011;38747;53.140;6.498;2023-08-06T05:15:47;11.52;;;5.63;;
52878;SDS011;38747;53.140;6.498;2023-08-06T05:18:14;13.53;;;5.27;;
52878;SDS011;38747;53.140;6.498;2023-08-06T05:20:40;11.38;;;5.82;;
52878;SDS011;38747;53.140;6.498;2023-08-06T05:23:06;8.73;;;5.15;;
52878;SDS011;38747;53.140;6.498;2023-08-06T05:25:34;10.33;;;5.60;;
52878;SDS011;38747;53.140;6.498;2023-08-06T05:28:00;11.50;;;5.65;;
52878;SDS011;38747;53.140;6.498;2023-08-06T05:30:26;9.75;;;5.40;;
52878;SDS011;38747;53.140;6.498;2023-08-06T05:32:52;11.23;;;5.90;;
52878;SDS011;38747;53.140;6.498;2023-08-06T05:35:18;9.13;;;4.90;;
52878;SDS011;38747;53.140;6.498;2023-08-06T05:37:44;9.07;;;5.53;;
52878;SDS011;38747;53.140;6.498;2023-08-06T05:40:09;9.50;;;5.70;;
52878;SDS011;38747;53.140;6.498;2023-08-06T05:42:35;14.35;;;5.95;;
52878;SDS011;38747;53.140;6.498;2023-08-06T05:45:01;9.67;;;5.50;;
52878;SDS011;38747;53.140;6.498;2023-08-06T05:47:26;9.52;;;5.53;;
52878;SDS011;38747;53.140;6.498;2023-08-06T05:49:52;9.97;;;5.90;;
52878;SDS011;38747;53.140;6.498;2023-08-06T05:52:17;11.13;;;5.50;;
52878;SDS011;38747;53.140;6.498;2023-08-06T05:54:43;11.13;;;5.80;;
52878;SDS011;38747;53.140;6.498;2023-08-06T05:57:09;9.27;;;5.53;;
52878;SDS011;38747;53.140;6.498;2023-08-06T05:59:34;9.85;;;5.50;;
52878;SDS011;38747;53.140;6.498;2023-08-06T06:02:00;8.53;;;5.20;;
52878;SDS011;38747;53.140;6.498;2023-08-06T06:04:26;10.48;;;5.40;;
52878;SDS011;38747;53.140;6.498;2023-08-06T06:06:51;10.33;;;5.67;;
52878;SDS011;38747;53.140;6.498;2023-08-06T06:09:17;10.07;;;5.25;;
52878;SDS011;38747;53.140;6.498;2023-08-06T06:11:43;9.87;;;5.10;;
52878;SDS011;38747;53.140;6.498;2023-08-06T06:14:08;9.73;;;5.20;;
52878;SDS011;38747;53.140;6.498;2023-08-06T06:16:34;8.73;;;5.30;;
52878;SDS011;38747;53.140;6.498;2023-08-06T06:19:00;9.68;;;5.20;;
52878;SDS011;38747;53.140;6.498;2023-08-06T06:21:25;11.60;;;5.27;;
52878;SDS011;38747;53.140;6.498;2023-08-06T06:23:51;9.88;;;5.07;;
52878;SDS011;38747;53.140;6.498;2023-08-06T06:26:17;9.90;;;5.33;;
52878;SDS011;38747;53.140;6.498;2023-08-06T06:28:43;9.65;;;4.93;;
52878;SDS011;38747;53.140;6.498;2023-08-06T06:31:09;9.93;;;5.43;;
52878;SDS011;38747;53.140;6.498;2023-08-06T06:33:35;9.90;;;5.13;;
52878;SDS011;38747;53.140;6.498;2023-08-06T06:36:00;10.13;;;5.47;;
52878;SDS011;38747;53.140;6.498;2023-08-06T06:38:28;9.23;;;5.10;;
52878;SDS011;38747;53.140;6.498;2023-08-06T06:40:54;9.32;;;5.40;;
52878;SDS011;38747;53.140;6.498;2023-08-06T06:43:21;10.50;;;5.15;;
52878;SDS011;38747;53.140;6.498;2023-08-06T06:45:51;8.88;;;5.40;;
52878;SDS011;38747;53.140;6.498;2023-08-06T06:48:27;9.47;;;5.13;;
52878;SDS011;38747;53.140;6.498;2023-08-06T06:50:53;12.75;;;4.97;;
52878;SDS011;38747;53.140;6.498;2023-08-06T06:53:19;8.98;;;5.07;;
52878;SDS011;38747;53.140;6.498;2023-08-06T06:55:44;9.67;;;5.40;;
52878;SDS011;38747;53.140;6.498;2023-08-06T06:58:10;10.15;;;5.22;;
52878;SDS011;38747;53.140;6.498;2023-08-06T07:00:36;9.60;;;5.37;;
52878;SDS011;38747;53.140;6.498;2023-08-06T07:03:02;11.02;;;5.38;;
52878;SDS011;38747;53.140;6.498;2023-08-06T07:05:28;9.70;;;5.10;;
52878;SDS011;38747;53.140;6.498;2023-08-06T07:07:54;8.85;;;5.15;;
52878;SDS011;38747;53.140;6.498;2023-08-06T07:10:20;10.67;;;5.30;;
52878;SDS011;38747;53.140;6.498;2023-08-06T07:12:45;8.65;;;4.82;;
52878;SDS011;38747;53.140;6.498;2023-08-06T07:15:11;9.63;;;4.87;;
52878;SDS011;38747;53.140;6.498;2023-08-06T07:17:37;10.15;;;5.32;;
52878;SDS011;38747;53.140;6.498;2023-08-06T07:20:03;10.33;;;5.00;;
52878;SDS011;38747;53.140;6.498;2023-08-06T07:22:29;12.07;;;5.03;;
52878;SDS011;38747;53.140;6.498;2023-08-06T07:24:54;8.57;;;4.70;;
52878;SDS011;38747;53.140;6.498;2023-08-06T07:27:20;9.93;;;5.57;;
52878;SDS011;38747;53.140;6.498;2023-08-06T07:29:46;8.83;;;5.10;;
52878;SDS011;38747;53.140;6.498;2023-08-06T07:32:13;9.75;;;5.30;;
52878;SDS011;38747;53.140;6.498;2023-08-06T07:34:38;9.87;;;5.50;;
52878;SDS011;38747;53.140;6.498;2023-08-06T07:37:04;8.50;;;4.85;;
52878;SDS011;38747;53.140;6.498;2023-08-06T07:39:30;10.52;;;5.05;;
52878;SDS011;38747;53.140;6.498;2023-08-06T07:41:56;8.73;;;4.20;;
52878;SDS011;38747;53.140;6.498;2023-08-06T07:44:22;8.35;;;4.53;;
52878;SDS011;38747;53.140;6.498;2023-08-06T07:46:48;8.83;;;4.30;;
52878;SDS011;38747;53.140;6.498;2023-08-06T07:49:14;8.25;;;4.47;;
52878;SDS011;38747;53.140;6.498;2023-08-06T07:51:40;8.35;;;4.38;;
52878;SDS011;38747;53.140;6.498;2023-08-06T07:54:06;8.87;;;4.50;;
52878;SDS011;38747;53.140;6.498;2023-08-06T07:56:31;10.63;;;4.63;;
52878;SDS011;38747;53.140;6.498;2023-08-06T07:58:57;8.87;;;4.50;;
52878;SDS011;38747;53.140;6.498;2023-08-06T08:01:23;8.73;;;4.30;;
52878;SDS011;38747;53.140;6.498;2023-08-06T08:03:48;6.83;;;4.03;;
52878;SDS011;38747;53.140;6.498;2023-08-06T08:06:14;7.93;;;4.43;;
52878;SDS011;38747;53.140;6.498;2023-08-06T08:08:40;7.60;;;4.30;;
52878;SDS011;38747;53.140;6.498;2023-08-06T08:11:05;7.47;;;3.45;;
52878;SDS011;38747;53.140;6.498;2023-08-06T08:13:31;8.23;;;3.87;;
52878;SDS011;38747;53.140;6.498;2023-08-06T08:15:57;7.15;;;3.63;;
52878;SDS011;38747;53.140;6.498;2023-08-06T08:18:27;7.65;;;3.67;;
52878;SDS011;38747;53.140;6.498;2023-08-06T08:20:53;6.50;;;3.60;;
52878;SDS011;38747;53.140;6.498;2023-08-06T08:23:18;7.18;;;3.95;;
52878;SDS011;38747;53.140;6.498;2023-08-06T08:25:44;7.17;;;3.57;;
52878;SDS011;38747;53.140;6.498;2023-08-06T08:28:10;6.50;;;3.28;;
52878;SDS011;38747;53.140;6.498;2023-08-06T08:30:35;6.90;;;3.30;;
52878;SDS011;38747;53.140;6.498;2023-08-06T08:33:01;6.35;;;3.35;;
52878;SDS011;38747;53.140;6.498;2023-08-06T08:35:26;6.53;;;3.10;;
52878;SDS011;38747;53.140;6.498;2023-08-06T08:37:52;6.87;;;3.10;;
52878;SDS011;38747;53.140;6.498;2023-08-06T08:40:19;6.40;;;3.25;;
52878;SDS011;38747;53.140;6.498;2023-08-06T08:42:48;6.32;;;3.40;;
52878;SDS011;38747;53.140;6.498;2023-08-06T08:45:14;6.53;;;3.40;;
52878;SDS011;38747;53.140;6.498;2023-08-06T08:47:43;7.00;;;2.80;;
52878;SDS011;38747;53.140;6.498;2023-08-06T08:50:11;5.25;;;2.30;;
52878;SDS011;38747;53.140;6.498;2023-08-06T08:52:38;5.30;;;2.20;;
52878;SDS011;38747;53.140;6.498;2023-08-06T08:55:06;5.28;;;2.30;;
52878;SDS011;38747;53.140;6.498;2023-08-06T08:57:32;5.32;;;2.00;;
52878;SDS011;38747;53.140;6.498;2023-08-06T08:59:58;7.03;;;2.20;;
52878;SDS011;38747;53.140;6.498;2023-08-06T09:02:24;4.72;;;2.08;;
52878;SDS011;38747;53.140;6.498;2023-08-06T09:04:53;5.60;;;1.80;;
52878;SDS011;38747;53.140;6.498;2023-08-06T09:07:20;4.83;;;1.87;;
52878;SDS011;38747;53.140;6.498;2023-08-06T09:09:48;4.03;;;1.65;;
52878;SDS011;38747;53.140;6.498;2023-08-06T09:12:15;5.20;;;1.90;;
52878;SDS011;38747;53.140;6.498;2023-08-06T09:14:42;3.97;;;1.63;;
52878;SDS011;38747;53.140;6.498;2023-08-06T09:17:08;5.63;;;1.83;;
52878;SDS011;38747;53.140;6.498;2023-08-06T09:19:35;3.87;;;1.63;;
52878;SDS011;38747;53.140;6.498;2023-08-06T09:22:01;3.88;;;1.63;;
52878;SDS011;38747;53.140;6.498;2023-08-06T09:24:27;4.93;;;1.80;;
52878;SDS011;38747;53.140;6.498;2023-08-06T09:26:53;3.77;;;1.70;;
52878;SDS011;38747;53.140;6.498;2023-08-06T09:29:19;4.18;;;1.63;;
52878;SDS011;38747;53.140;6.498;2023-08-06T09:34:15;4.40;;;1.67;;
52878;SDS011;38747;53.140;6.498;2023-08-06T09:36:47;4.23;;;1.80;;
52878;SDS011;38747;53.140;6.498;2023-08-06T09:39:35;4.65;;;1.70;;
52878;SDS011;38747;53.140;6.498;2023-08-06T09:42:01;4.75;;;1.70;;
52878;SDS011;38747;53.140;6.498;2023-08-06T09:44:29;6.25;;;2.10;;
52878;SDS011;38747;53.140;6.498;2023-08-06T09:47:05;4.65;;;2.03;;
52878;SDS011;38747;53.140;6.498;2023-08-06T09:51:57;5.07;;;2.00;;
52878;SDS011;38747;53.140;6.498;2023-08-06T09:54:24;4.40;;;1.80;;
52878;SDS011;38747;53.140;6.498;2023-08-06T09:56:52;5.43;;;1.80;;
52878;SDS011;38747;53.140;6.498;2023-08-06T09:59:19;3.63;;;1.60;;
52878;SDS011;38747;53.140;6.498;2023-08-06T10:01:44;4.82;;;2.00;;
52878;SDS011;38747;53.140;6.498;2023-08-06T10:04:11;4.70;;;2.03;;
52878;SDS011;38747;53.140;6.498;2023-08-06T10:06:41;5.10;;;2.00;;
52878;SDS011;38747;53.140;6.498;2023-08-06T10:09:07;4.93;;;1.70;;
52878;SDS011;38747;53.140;6.498;2023-08-06T10:11:34;5.28;;;1.80;;
52878;SDS011;38747;53.140;6.498;2023-08-06T10:14:04;5.00;;;1.50;;
52878;SDS011;38747;53.140;6.498;2023-08-06T10:16:34;6.55;;;1.83;;
52878;SDS011;38747;53.140;6.498;2023-08-06T10:19:01;3.93;;;1.80;;
52878;SDS011;38747;53.140;6.498;2023-08-06T10:21:30;4.28;;;1.60;;
52878;SDS011;38747;53.140;6.498;2023-08-06T10:23:56;4.75;;;1.70;;
52878;SDS011;38747;53.140;6.498;2023-08-06T10:26:26;3.88;;;1.55;;
52878;SDS011;38747;53.140;6.498;2023-08-06T10:28:53;4.18;;;1.80;;
52878;SDS011;38747;53.140;6.498;2023-08-06T10:31:19;4.13;;;1.57;;
52878;SDS011;38747;53.140;6.498;2023-08-06T10:33:45;5.03;;;1.58;;
52878;SDS011;38747;53.140;6.498;2023-08-06T10:36:13;4.15;;;1.58;;
52878;SDS011;38747;53.140;6.498;2023-08-06T10:38:49;3.72;;;1.50;;
52878;SDS011;38747;53.140;6.498;2023-08-06T10:41:16;4.60;;;1.50;;
52878;SDS011;38747;53.140;6.498;2023-08-06T10:43:42;5.07;;;1.50;;
52878;SDS011;38747;53.140;6.498;2023-08-06T10:46:10;4.65;;;1.48;;
52878;SDS011;38747;53.140;6.498;2023-08-06T10:48:45;4.47;;;1.52;;
52878;SDS011;38747;53.140;6.498;2023-08-06T10:51:12;6.13;;;1.58;;
52878;SDS011;38747;53.140;6.498;2023-08-06T10:53:41;4.53;;;1.50;;
52878;SDS011;38747;53.140;6.498;2023-08-06T10:58:40;4.18;;;1.50;;
52878;SDS011;38747;53.140;6.498;2023-08-06T11:01:06;3.70;;;1.30;;
52878;SDS011;38747;53.140;6.498;2023-08-06T11:03:32;3.60;;;1.50;;
52878;SDS011;38747;53.140;6.498;2023-08-06T11:05:59;4.07;;;1.40;;
52878;SDS011;38747;53.140;6.498;2023-08-06T11:10:51;4.03;;;1.50;;
52878;SDS011;38747;53.140;6.498;2023-08-06T11:13:17;4.90;;;1.80;;
52878;SDS011;38747;53.140;6.498;2023-08-06T11:15:44;4.00;;;1.50;;
52878;SDS011;38747;53.140;6.498;2023-08-06T11:18:10;4.95;;;1.70;;
52878;SDS011;38747;53.140;6.498;2023-08-06T11:20:36;4.57;;;1.70;;
52878;SDS011;38747;53.140;6.498;2023-08-06T11:23:02;4.85;;;1.70;;
52878;SDS011;38747;53.140;6.498;2023-08-06T11:25:29;4.30;;;1.50;;
52878;SDS011;38747;53.140;6.498;2023-08-06T11:27:55;4.00;;;1.73;;
52878;SDS011;38747;53.140;6.498;2023-08-06T11:30:20;3.95;;;1.60;;
52878;SDS011;38747;53.140;6.498;2023-08-06T11:32:46;4.50;;;1.40;;
52878;SDS011;38747;53.140;6.498;2023-08-06T11:35:13;5.88;;;2.10;;
52878;SDS011;38747;53.140;6.498;2023-08-06T11:37:43;3.90;;;1.30;;
52878;SDS011;38747;53.140;6.498;2023-08-06T11:40:13;4.18;;;1.50;;
52878;SDS011;38747;53.140;6.498;2023-08-06T11:42:40;4.05;;;1.45;;
52878;SDS011;38747;53.140;6.498;2023-08-06T11:45:07;3.70;;;1.23;;
52878;SDS011;38747;53.140;6.498;2023-08-06T11:47:36;4.30;;;1.70;;
52878;SDS011;38747;53.140;6.498;2023-08-06T11:50:05;3.92;;;1.70;;
52878;SDS011;38747;53.140;6.498;2023-08-06T11:52:31;3.30;;;1.33;;
52878;SDS011;38747;53.140;6.498;2023-08-06T11:55:00;5.37;;;1.77;;
52878;SDS011;38747;53.140;6.498;2023-08-06T11:57:37;4.20;;;1.60;;
52878;SDS011;38747;53.140;6.498;2023-08-06T12:00:05;3.95;;;1.45;;
52878;SDS011;38747;53.140;6.498;2023-08-06T12:02:33;3.67;;;1.50;;
52878;SDS011;38747;53.140;6.498;2023-08-06T12:05:01;4.38;;;1.73;;
52878;SDS011;38747;53.140;6.498;2023-08-06T12:07:36;3.50;;;1.33;;
52878;SDS011;38747;53.140;6.498;2023-08-06T12:10:03;4.43;;;1.40;;
52878;SDS011;38747;53.140;6.498;2023-08-06T12:12:29;4.47;;;1.50;;
52878;SDS011;38747;53.140;6.498;2023-08-06T12:14:55;4.63;;;1.58;;
52878;SDS011;38747;53.140;6.498;2023-08-06T12:17:21;3.83;;;1.45;;
52878;SDS011;38747;53.140;6.498;2023-08-06T12:19:47;3.60;;;1.40;;
52878;SDS011;38747;53.140;6.498;2023-08-06T12:22:14;3.80;;;1.60;;
52878;SDS011;38747;53.140;6.498;2023-08-06T12:24:43;3.75;;;1.48;;
52878;SDS011;38747;53.140;6.498;2023-08-06T12:27:10;4.55;;;1.60;;
52878;SDS011;38747;53.140;6.498;2023-08-06T12:29:36;3.45;;;1.48;;
52878;SDS011;38747;53.140;6.498;2023-08-06T12:32:05;3.73;;;1.43;;
52878;SDS011;38747;53.140;6.498;2023-08-06T12:34:31;3.85;;;1.63;;
52878;SDS011;38747;53.140;6.498;2023-08-06T12:36:56;4.40;;;1.50;;
52878;SDS011;38747;53.140;6.498;2023-08-06T12:39:22;4.10;;;1.52;;
52878;SDS011;38747;53.140;6.498;2023-08-06T12:41:48;4.53;;;1.60;;
52878;SDS011;38747;53.140;6.498;2023-08-06T12:44:14;5.45;;;1.60;;
52878;SDS011;38747;53.140;6.498;2023-08-06T12:46:39;3.95;;;1.40;;
52878;SDS011;38747;53.140;6.498;2023-08-06T12:49:05;5.80;;;1.53;;
52878;SDS011;38747;53.140;6.498;2023-08-06T12:51:31;4.00;;;1.50;;
52878;SDS011;38747;53.140;6.498;2023-08-06T12:53:58;5.60;;;1.55;;
52878;SDS011;38747;53.140;6.498;2023-08-06T12:56:24;4.47;;;1.80;;
52878;SDS011;38747;53.140;6.498;2023-08-06T12:58:50;5.00;;;1.60;;
52878;SDS011;38747;53.140;6.498;2023-08-06T13:01:15;6.88;;;1.63;;
52878;SDS011;38747;53.140;6.498;2023-08-06T13:03:41;4.07;;;1.50;;
52878;SDS011;38747;53.140;6.498;2023-08-06T13:06:07;5.22;;;1.50;;
52878;SDS011;38747;53.140;6.498;2023-08-06T13:08:34;8.45;;;1.60;;
52878;SDS011;38747;53.140;6.498;2023-08-06T13:11:00;4.23;;;1.67;;
52878;SDS011;38747;53.140;6.498;2023-08-06T13:13:26;4.30;;;1.30;;
52878;SDS011;38747;53.140;6.498;2023-08-06T13:15:52;3.72;;;1.40;;
52878;SDS011;38747;53.140;6.498;2023-08-06T13:18:17;4.70;;;1.53;;
52878;SDS011;38747;53.140;6.498;2023-08-06T13:20:43;3.92;;;1.55;;
52878;SDS011;38747;53.140;6.498;2023-08-06T13:23:09;3.43;;;1.37;;
52878;SDS011;38747;53.140;6.498;2023-08-06T13:25:34;4.65;;;1.50;;
52878;SDS011;38747;53.140;6.498;2023-08-06T13:28:05;3.67;;;1.33;;
52878;SDS011;38747;53.140;6.498;2023-08-06T13:30:30;5.18;;;1.50;;
52878;SDS011;38747;53.140;6.498;2023-08-06T13:32:56;3.50;;;1.30;;
52878;SDS011;38747;53.140;6.498;2023-08-06T13:35:23;3.63;;;1.30;;
52878;SDS011;38747;53.140;6.498;2023-08-06T13:37:49;4.20;;;1.60;;
52878;SDS011;38747;53.140;6.498;2023-08-06T13:40:14;4.22;;;1.50;;
52878;SDS011;38747;53.140;6.498;2023-08-06T13:42:40;4.72;;;1.48;;
52878;SDS011;38747;53.140;6.498;2023-08-06T13:45:06;3.77;;;1.50;;
52878;SDS011;38747;53.140;6.498;2023-08-06T13:47:32;3.42;;;1.30;;
52878;SDS011;38747;53.140;6.498;2023-08-06T13:49:58;4.37;;;1.50;;
52878;SDS011;38747;53.140;6.498;2023-08-06T13:52:25;5.32;;;1.52;;
52878;SDS011;38747;53.140;6.498;2023-08-06T13:54:52;3.53;;;1.50;;
52878;SDS011;38747;53.140;6.498;2023-08-06T13:57:18;4.27;;;1.27;;
52878;SDS011;38747;53.140;6.498;2023-08-06T13:59:43;4.18;;;1.40;;
52878;SDS011;38747;53.140;6.498;2023-08-06T14:02:09;5.00;;;1.70;;
52878;SDS011;38747;53.140;6.498;2023-08-06T14:04:35;3.88;;;1.50;;
52878;SDS011;38747;53.140;6.498;2023-08-06T14:07:02;3.80;;;1.40;;
52878;SDS011;38747;53.140;6.498;2023-08-06T14:09:29;4.50;;;1.58;;
52878;SDS011;38747;53.140;6.498;2023-08-06T14:11:54;3.60;;;1.43;;
52878;SDS011;38747;53.140;6.498;2023-08-06T14:14:20;3.45;;;1.50;;
52878;SDS011;38747;53.140;6.498;2023-08-06T14:16:51;4.15;;;1.40;;
52878;SDS011;38747;53.140;6.498;2023-08-06T14:19:17;4.07;;;1.50;;
52878;SDS011;38747;53.140;6.498;2023-08-06T14:21:42;3.72;;;1.40;;
52878;SDS011;38747;53.140;6.498;2023-08-06T14:24:08;4.30;;;1.60;;
52878;SDS011;38747;53.140;6.498;2023-08-06T14:26:33;3.25;;;1.42;;
52878;SDS011;38747;53.140;6.498;2023-08-06T14:29:00;3.37;;;1.10;;
52878;SDS011;38747;53.140;6.498;2023-08-06T14:31:26;4.13;;;1.45;;
52878;SDS011;38747;53.140;6.498;2023-08-06T14:33:52;3.50;;;1.30;;
52878;SDS011;38747;53.140;6.498;2023-08-06T14:36:18;4.20;;;1.30;;
52878;SDS011;38747;53.140;6.498;2023-08-06T14:38:44;4.40;;;1.70;;
52878;SDS011;38747;53.140;6.498;2023-08-06T14:41:09;4.73;;;1.30;;
52878;SDS011;38747;53.140;6.498;2023-08-06T14:43:35;3.72;;;1.35;;
52878;SDS011;38747;53.140;6.498;2023-08-06T14:46:01;3.20;;;1.30;;
52878;SDS011;38747;53.140;6.498;2023-08-06T14:48:27;3.28;;;1.27;;
52878;SDS011;38747;53.140;6.498;2023-08-06T14:50:53;3.97;;;1.50;;
52878;SDS011;38747;53.140;6.498;2023-08-06T14:53:19;3.38;;;1.55;;
52878;SDS011;38747;53.140;6.498;2023-08-06T14:55:45;3.65;;;1.40;;